Strona główna
METAR-TAF:

METAR-TAF

Lotnisko :

Port lotniczy Beauvais-Tillé

Beauvais, Francja

Szerokość geograficzna: 49-28N, Długość geograficzna: 002-07E, wysokość: 109 m

Aktualna obserwacja pogody

Raport powstał 15 minut temu, godzina 07:00 UTC
Wiatr 7 kt od zachód, zmienny między zachodnio-południowy zachód i północny zachód
Temperatura 17°C
Wilgotność 82%
Ciśnienie 1022 hPa
Widzialność 10 km lub więcej
Brak chmur poniżej 1500 m i brak chmur cumulonimbus

METAR: LFOB 210700Z AUTO 27007KT 250V310 CAVOK 17/14 Q1022 NOSIG

czas: 09:15 (07:15 UTC)

Prognoza

Raport powstał 2 godziny i 15 minut temu, godzina 05:00 UTC
Prognoza ważna od 21 godzina 06 UTC do 22 godzina 06 UTC
Wiatr 5 kt od zachód
Widzialność 10 km lub więcej
Brak chmur poniżej 1500 m i brak chmur cumulonimbus

TAF: LFOB 210500Z 2106/2206 28005KT CAVOK

Obserwacja i prognoza pogody dla ponad 4000 lotnisk (raport METAR i TAF).

Dostępne stacje oznaczono żółtymi i czerwonymi punktami na mapie.

Najedź kursorem aby zobaczyć nazwę stacji.

Kliknij aby zobaczyć obserwacje i prognozy pogody.

Aby zmienić mapę: kliknij na zielony przycisk z czarnym krzyżykiem, aby powiększyć; na zielony przycisk z myślnikiem, aby pomniejszyć; na zielone strzałki, aby przejść do map sąsiednich.


METAR-TAF: